sensor_id;sensor_type;location;lat;lon;timestamp;pressure;altitude;pressure_sealevel;temperature;humidity
21980;BME280;11154;48.558;9.234;2022-10-03T00:02:15;98322.16;;;14.99;100.00
21980;BME280;11154;48.558;9.234;2022-10-03T00:04:25;98320.16;;;14.93;100.00
21980;BME280;11154;48.558;9.234;2022-10-03T00:06:39;98314.94;;;14.91;100.00
21980;BME280;11154;48.558;9.234;2022-10-03T00:09:03;98318.31;;;14.93;100.00
21980;BME280;11154;48.558;9.234;2022-10-03T00:11:16;98319.16;;;14.94;100.00
21980;BME280;11154;48.558;9.234;2022-10-03T00:13:26;98313.31;;;14.90;100.00
21980;BME280;11154;48.558;9.234;2022-10-03T00:15:35;98314.63;;;14.86;100.00
21980;BME280;11154;48.558;9.234;2022-10-03T00:17:44;98317.81;;;14.90;100.00
21980;BME280;11154;48.558;9.234;2022-10-03T00:19:57;98326.19;;;14.87;100.00
21980;BME280;11154;48.558;9.234;2022-10-03T00:22:12;98329.38;;;14.82;100.00
21980;BME280;11154;48.558;9.234;2022-10-03T00:24:28;98333.53;;;14.85;100.00
21980;BME280;11154;48.558;9.234;2022-10-03T00:26:40;98331.69;;;14.85;100.00
21980;BME280;11154;48.558;9.234;2022-10-03T00:28:50;98337.03;;;14.85;100.00
21980;BME280;11154;48.558;9.234;2022-10-03T00:31:08;98342.25;;;14.79;100.00
21980;BME280;11154;48.558;9.234;2022-10-03T00:33:19;98348.94;;;14.75;100.00
21980;BME280;11154;48.558;9.234;2022-10-03T00:35:40;98355.63;;;14.71;100.00
21980;BME280;11154;48.558;9.234;2022-10-03T00:37:46;98355.47;;;14.64;100.00
21980;BME280;11154;48.558;9.234;2022-10-03T00:40:29;98361.63;;;14.57;100.00
21980;BME280;11154;48.558;9.234;2022-10-03T00:43:15;98362.13;;;14.52;100.00
21980;BME280;11154;48.558;9.234;2022-10-03T00:45:50;98353.94;;;14.54;100.00
21980;BME280;11154;48.558;9.234;2022-10-03T00:48:21;98355.28;;;14.58;100.00
21980;BME280;11154;48.558;9.234;2022-10-03T00:50:50;98353.94;;;14.54;100.00
21980;BME280;11154;48.558;9.234;2022-10-03T00:53:13;98358.28;;;14.47;100.00
21980;BME280;11154;48.558;9.234;2022-10-03T00:55:33;98363.66;;;14.47;100.00
21980;BME280;11154;48.558;9.234;2022-10-03T00:58:03;98365.31;;;14.40;100.00
21980;BME280;11154;48.558;9.234;2022-10-03T01:00:18;98353.09;;;14.38;100.00
21980;BME280;11154;48.558;9.234;2022-10-03T01:02:33;98353.09;;;14.38;100.00
21980;BME280;11154;48.558;9.234;2022-10-03T01:04:52;98340.72;;;14.37;100.00
21980;BME280;11154;48.558;9.234;2022-10-03T01:07:04;98350.91;;;14.33;100.00
21980;BME280;11154;48.558;9.234;2022-10-03T01:09:25;98359.25;;;14.22;100.00
21980;BME280;11154;48.558;9.234;2022-10-03T01:11:44;98359.91;;;14.24;100.00
21980;BME280;11154;48.558;9.234;2022-10-03T01:14:02;98360.56;;;14.26;100.00
21980;BME280;11154;48.558;9.234;2022-10-03T01:16:17;98358.06;;;14.25;100.00
21980;BME280;11154;48.558;9.234;2022-10-03T01:18:29;98364.09;;;14.27;100.00
21980;BME280;11154;48.558;9.234;2022-10-03T01:20:44;98357.22;;;14.24;100.00
21980;BME280;11154;48.558;9.234;2022-10-03T01:23:14;98360.06;;;14.23;100.00
21980;BME280;11154;48.558;9.234;2022-10-03T01:25:35;98355.41;;;14.25;100.00
21980;BME280;11154;48.558;9.234;2022-10-03T01:27:47;98351.88;;;14.24;100.00
21980;BME280;11154;48.558;9.234;2022-10-03T01:30:13;98355.22;;;14.26;100.00
21980;BME280;11154;48.558;9.234;2022-10-03T01:32:30;98354.91;;;14.29;100.00
21980;BME280;11154;48.558;9.234;2022-10-03T01:34:39;98362.59;;;14.32;100.00
21980;BME280;11154;48.558;9.234;2022-10-03T01:36:50;98370.63;;;14.32;100.00
21980;BME280;11154;48.558;9.234;2022-10-03T01:38:55;98362.94;;;14.37;100.00
21980;BME280;11154;48.558;9.234;2022-10-03T01:41:03;98383.84;;;14.42;100.00
21980;BME280;11154;48.558;9.234;2022-10-03T01:43:16;98379.69;;;14.39;100.00
21980;BME280;11154;48.558;9.234;2022-10-03T01:45:28;98372.31;;;14.33;100.00
21980;BME280;11154;48.558;9.234;2022-10-03T01:47:38;98373.47;;;14.31;100.00
21980;BME280;11154;48.558;9.234;2022-10-03T01:49:47;98382.31;;;14.23;100.00
21980;BME280;11154;48.558;9.234;2022-10-03T01:51:57;98387.69;;;14.23;100.00
21980;BME280;11154;48.558;9.234;2022-10-03T01:54:11;98395.84;;;14.22;100.00
21980;BME280;11154;48.558;9.234;2022-10-03T01:56:22;98390.31;;;14.15;100.00
21980;BME280;11154;48.558;9.234;2022-10-03T01:58:28;98391.63;;;14.11;100.00
21980;BME280;11154;48.558;9.234;2022-10-03T02:00:41;98396.28;;;14.09;100.00
21980;BME280;11154;48.558;9.234;2022-10-03T02:02:48;98395.78;;;14.06;100.00
21980;BME280;11154;48.558;9.234;2022-10-03T02:05:00;98403.63;;;14.07;100.00
21980;BME280;11154;48.558;9.234;2022-10-03T02:07:11;98408.69;;;14.10;100.00
21980;BME280;11154;48.558;9.234;2022-10-03T02:09:24;98417.38;;;14.12;100.00
21980;BME280;11154;48.558;9.234;2022-10-03T02:11:31;98419.91;;;14.14;100.00
21980;BME280;11154;48.558;9.234;2022-10-03T02:13:41;98421.56;;;14.15;100.00
21980;BME280;11154;48.558;9.234;2022-10-03T02:15:55;98427.13;;;14.21;100.00
21980;BME280;11154;48.558;9.234;2022-10-03T02:18:08;98418.75;;;14.24;100.00
21980;BME280;11154;48.558;9.234;2022-10-03T02:20:23;98415.25;;;14.24;100.00
21980;BME280;11154;48.558;9.234;2022-10-03T02:22:31;98418.75;;;14.24;100.00
21980;BME280;11154;48.558;9.234;2022-10-03T02:24:44;98416.06;;;14.24;100.00
21980;BME280;11154;48.558;9.234;2022-10-03T02:27:12;98413.41;;;14.24;100.00
21980;BME280;11154;48.558;9.234;2022-10-03T02:29:32;98415.25;;;14.24;100.00
21980;BME280;11154;48.558;9.234;2022-10-03T02:32:09;98414.44;;;14.23;100.00
21980;BME280;11154;48.558;9.234;2022-10-03T02:34:31;98414.78;;;14.28;100.00
21980;BME280;11154;48.558;9.234;2022-10-03T02:37:03;98415.47;;;14.30;100.00
21980;BME280;11154;48.558;9.234;2022-10-03T02:39:45;98412.63;;;14.32;100.00
21980;BME280;11154;48.558;9.234;2022-10-03T02:45:01;98417.75;;;14.25;100.00
21980;BME280;11154;48.558;9.234;2022-10-03T02:50:00;98424.44;;;14.21;100.00
21980;BME280;11154;48.558;9.234;2022-10-03T02:54:55;98420.25;;;14.19;100.00
21980;BME280;11154;48.558;9.234;2022-10-03T02:59:54;98430.78;;;14.20;100.00
21980;BME280;11154;48.558;9.234;2022-10-03T03:02:24;98429.97;;;14.20;100.00
21980;BME280;11154;48.558;9.234;2022-10-03T03:04:57;98431.63;;;14.21;100.00
21980;BME280;11154;48.558;9.234;2022-10-03T03:07:28;98428.28;;;14.19;100.00
21980;BME280;11154;48.558;9.234;2022-10-03T03:09:51;98427.13;;;14.21;100.00
21980;BME280;11154;48.558;9.234;2022-10-03T03:17:18;98425.63;;;14.19;100.00
21980;BME280;11154;48.558;9.234;2022-10-03T03:19:53;98427.44;;;14.18;100.00
21980;BME280;11154;48.558;9.234;2022-10-03T03:22:03;98422.25;;;14.17;100.00
21980;BME280;11154;48.558;9.234;2022-10-03T03:24:20;98415.38;;;14.14;100.00
21980;BME280;11154;48.558;9.234;2022-10-03T03:29:16;98412.34;;;14.09;100.00
21980;BME280;11154;48.558;9.234;2022-10-03T03:31:29;98412.34;;;14.09;100.00
21980;BME280;11154;48.558;9.234;2022-10-03T03:33:42;98414.31;;;14.07;100.00
21980;BME280;11154;48.558;9.234;2022-10-03T03:35:58;98401.94;;;14.06;100.00
21980;BME280;11154;48.558;9.234;2022-10-03T03:38:13;98406.47;;;14.06;100.00
21980;BME280;11154;48.558;9.234;2022-10-03T03:40:33;98399.75;;;14.02;100.00
21980;BME280;11154;48.558;9.234;2022-10-03T03:42:52;98397.94;;;14.02;100.00
21980;BME280;11154;48.558;9.234;2022-10-03T03:45:20;98402.28;;;14.03;100.00
21980;BME280;11154;48.558;9.234;2022-10-03T03:47:36;98402.13;;;14.05;100.00
21980;BME280;11154;48.558;9.234;2022-10-03T03:50:00;98398.91;;;14.01;100.00
21980;BME280;11154;48.558;9.234;2022-10-03T03:52:21;98396.25;;;14.01;100.00
21980;BME280;11154;48.558;9.234;2022-10-03T03:54:58;98396.25;;;14.01;100.00
21980;BME280;11154;48.558;9.234;2022-10-03T03:57:23;98397.06;;;14.02;100.00
21980;BME280;11154;48.558;9.234;2022-10-03T03:59:38;98399.25;;;13.98;100.00
21980;BME280;11154;48.558;9.234;2022-10-03T04:02:00;98409.97;;;13.98;100.00
21980;BME280;11154;48.558;9.234;2022-10-03T04:04:15;98404.09;;;13.95;100.00
21980;BME280;11154;48.558;9.234;2022-10-03T04:06:28;98406.91;;;13.93;100.00
21980;BME280;11154;48.558;9.234;2022-10-03T04:08:59;98411.44;;;13.93;100.00
21980;BME280;11154;48.558;9.234;2022-10-03T04:11:14;98412.59;;;13.90;100.00
21980;BME280;11154;48.558;9.234;2022-10-03T04:13:45;98419.09;;;13.88;100.00
21980;BME280;11154;48.558;9.234;2022-10-03T04:16:02;98409.22;;;13.88;100.00
21980;BME280;11154;48.558;9.234;2022-10-03T04:18:26;98408.72;;;13.85;100.00
21980;BME280;11154;48.558;9.234;2022-10-03T04:21:08;98414.38;;;13.82;100.00
21980;BME280;11154;48.558;9.234;2022-10-03T04:23:26;98424.41;;;13.80;100.00
21980;BME280;11154;48.558;9.234;2022-10-03T04:25:49;98417.88;;;13.82;100.00
21980;BME280;11154;48.558;9.234;2022-10-03T04:28:19;98419.75;;;13.82;100.00
21980;BME280;11154;48.558;9.234;2022-10-03T04:30:32;98426.72;;;13.83;100.00
21980;BME280;11154;48.558;9.234;2022-10-03T04:32:53;98427.41;;;13.85;100.00
21980;BME280;11154;48.558;9.234;2022-10-03T04:35:14;98422.75;;;13.87;100.00
21980;BME280;11154;48.558;9.234;2022-10-03T04:37:20;98431.78;;;13.86;100.00
21980;BME280;11154;48.558;9.234;2022-10-03T04:39:31;98418.25;;;13.87;100.00
21980;BME280;11154;48.558;9.234;2022-10-03T04:41:43;98423.28;;;13.90;100.00
21980;BME280;11154;48.558;9.234;2022-10-03T04:43:53;98435.13;;;13.88;100.00
21980;BME280;11154;48.558;9.234;2022-10-03T04:46:09;98430.94;;;13.85;100.00
21980;BME280;11154;48.558;9.234;2022-10-03T04:48:23;98426.59;;;13.84;100.00
21980;BME280;11154;48.558;9.234;2022-10-03T04:50:34;98432.94;;;13.83;100.00
21980;BME280;11154;48.558;9.234;2022-10-03T04:52:41;98433.75;;;13.84;100.00
21980;BME280;11154;48.558;9.234;2022-10-03T04:54:53;98436.44;;;13.84;100.00
21980;BME280;11154;48.558;9.234;2022-10-03T04:57:04;98430.25;;;13.83;100.00
21980;BME280;11154;48.558;9.234;2022-10-03T04:59:25;98437.94;;;13.86;100.00
21980;BME280;11154;48.558;9.234;2022-10-03T05:01:34;98437.94;;;13.86;100.00
21980;BME280;11154;48.558;9.234;2022-10-03T05:03:51;98437.13;;;13.86;100.00
21980;BME280;11154;48.558;9.234;2022-10-03T05:06:01;98439.63;;;13.87;100.00
21980;BME280;11154;48.558;9.234;2022-10-03T05:08:18;98436.97;;;13.87;100.00
21980;BME280;11154;48.558;9.234;2022-10-03T05:10:47;98441.00;;;13.91;100.00
21980;BME280;11154;48.558;9.234;2022-10-03T05:12:59;98446.88;;;13.95;100.00
21980;BME280;11154;48.558;9.234;2022-10-03T05:15:17;98439.22;;;14.00;100.00
21980;BME280;11154;48.558;9.234;2022-10-03T05:17:27;98455.09;;;14.01;100.00
21980;BME280;11154;48.558;9.234;2022-10-03T05:19:42;98454.41;;;13.99;100.00
21980;BME280;11154;48.558;9.234;2022-10-03T05:21:49;98449.91;;;14.00;100.00
21980;BME280;11154;48.558;9.234;2022-10-03T05:23:59;98455.78;;;14.03;100.00
21980;BME280;11154;48.558;9.234;2022-10-03T05:26:07;98451.94;;;14.06;100.00
21980;BME280;11154;48.558;9.234;2022-10-03T05:28:21;98452.75;;;14.06;100.00
21980;BME280;11154;48.558;9.234;2022-10-03T05:30:35;98451.78;;;14.07;100.00
21980;BME280;11154;48.558;9.234;2022-10-03T05:32:45;98453.44;;;14.08;100.00
21980;BME280;11154;48.558;9.234;2022-10-03T05:34:59;98454.81;;;14.12;100.00
21980;BME280;11154;48.558;9.234;2022-10-03T05:37:19;98453.16;;;14.11;100.00
21980;BME280;11154;48.558;9.234;2022-10-03T05:39:25;98447.28;;;14.08;100.00
21980;BME280;11154;48.558;9.234;2022-10-03T05:41:29;98461.63;;;14.07;100.00
21980;BME280;11154;48.558;9.234;2022-10-03T05:43:43;98466.69;;;14.10;100.00
21980;BME280;11154;48.558;9.234;2022-10-03T05:45:51;98475.41;;;14.12;100.00
21980;BME280;11154;48.558;9.234;2022-10-03T05:50:55;98482.25;;;14.14;100.00
21980;BME280;11154;48.558;9.234;2022-10-03T05:53:23;98480.94;;;14.18;100.00
21980;BME280;11154;48.558;9.234;2022-10-03T05:55:44;98480.78;;;14.20;100.00
21980;BME280;11154;48.558;9.234;2022-10-03T06:00:29;98500.19;;;14.22;100.00
21980;BME280;11154;48.558;9.234;2022-10-03T06:03:09;98501.69;;;14.24;100.00
21980;BME280;11154;48.558;9.234;2022-10-03T06:10:46;98504.38;;;14.24;100.00
21980;BME280;11154;48.558;9.234;2022-10-03T06:13:02;98517.75;;;14.24;100.00
21980;BME280;11154;48.558;9.234;2022-10-03T06:15:41;98512.91;;;14.28;100.00
21980;BME280;11154;48.558;9.234;2022-10-03T06:17:55;98504.41;;;14.32;100.00
21980;BME280;11154;48.558;9.234;2022-10-03T06:20:14;98518.47;;;14.34;100.00
21980;BME280;11154;48.558;9.234;2022-10-03T06:22:47;98517.47;;;14.35;100.00
21980;BME280;11154;48.558;9.234;2022-10-03T06:25:15;98513.81;;;14.36;100.00
21980;BME280;11154;48.558;9.234;2022-10-03T06:27:31;98520.97;;;14.36;100.00
21980;BME280;11154;48.558;9.234;2022-10-03T06:30:07;98519.81;;;14.38;100.00
21980;BME280;11154;48.558;9.234;2022-10-03T06:38:00;98524.53;;;14.44;100.00
21980;BME280;11154;48.558;9.234;2022-10-03T06:45:45;98531.59;;;14.53;100.00
21980;BME280;11154;48.558;9.234;2022-10-03T06:48:06;98535.97;;;14.54;100.00
21980;BME280;11154;48.558;9.234;2022-10-03T06:50:44;98540.16;;;14.56;100.00
21980;BME280;11154;48.558;9.234;2022-10-03T06:53:05;98535.31;;;14.60;100.00
21980;BME280;11154;48.558;9.234;2022-10-03T06:55:25;98541.50;;;14.60;100.00
21980;BME280;11154;48.558;9.234;2022-10-03T07:00:22;98540.50;;;14.61;100.00
21980;BME280;11154;48.558;9.234;2022-10-03T07:02:49;98544.69;;;14.64;100.00
21980;BME280;11154;48.558;9.234;2022-10-03T07:08:07;98552.13;;;14.78;100.00
21980;BME280;11154;48.558;9.234;2022-10-03T07:10:22;98548.47;;;14.87;100.00
21980;BME280;11154;48.558;9.234;2022-10-03T07:12:52;98550.13;;;14.88;100.00
21980;BME280;11154;48.558;9.234;2022-10-03T07:15:21;98560.84;;;14.88;100.00
21980;BME280;11154;48.558;9.234;2022-10-03T07:17:36;98561.34;;;14.83;100.00
21980;BME280;11154;48.558;9.234;2022-10-03T07:19:56;98557.16;;;14.81;100.00
21980;BME280;11154;48.558;9.234;2022-10-03T07:22:20;98558.16;;;14.80;100.00
21980;BME280;11154;48.558;9.234;2022-10-03T07:24:51;98555.78;;;14.77;100.00
21980;BME280;11154;48.558;9.234;2022-10-03T07:27:24;98554.28;;;14.74;100.00
21980;BME280;11154;48.558;9.234;2022-10-03T07:32:22;98568.50;;;14.75;100.00
21980;BME280;11154;48.558;9.234;2022-10-03T07:34:52;98563.81;;;14.77;100.00
21980;BME280;11154;48.558;9.234;2022-10-03T07:37:10;98569.88;;;14.79;100.00
21980;BME280;11154;48.558;9.234;2022-10-03T07:40:00;98566.00;;;14.81;100.00
21980;BME280;11154;48.558;9.234;2022-10-03T07:45:12;98565.38;;;14.87;100.00
21980;BME280;11154;48.558;9.234;2022-10-03T07:48:02;98569.56;;;14.90;100.00
21980;BME280;11154;48.558;9.234;2022-10-03T07:50:34;98565.19;;;14.89;100.00
21980;BME280;11154;48.558;9.234;2022-10-03T07:53:02;98572.06;;;14.91;100.00
21980;BME280;11154;48.558;9.234;2022-10-03T07:55:24;98565.56;;;14.94;100.00
21980;BME280;11154;48.558;9.234;2022-10-03T07:58:00;98563.53;;;14.96;100.00
21980;BME280;11154;48.558;9.234;2022-10-03T08:00:20;98568.91;;;14.96;100.00
21980;BME280;11154;48.558;9.234;2022-10-03T08:02:39;98557.19;;;14.97;100.00
21980;BME280;11154;48.558;9.234;2022-10-03T08:04:59;98568.25;;;15.02;100.00
21980;BME280;11154;48.558;9.234;2022-10-03T08:07:20;98566.25;;;15.04;100.00
21980;BME280;11154;48.558;9.234;2022-10-03T08:09:50;98575.63;;;15.08;100.00
21980;BME280;11154;48.558;9.234;2022-10-03T08:12:32;98568.28;;;15.10;100.00
21980;BME280;11154;48.558;9.234;2022-10-03T08:14:46;98567.97;;;15.13;100.00
21980;BME280;11154;48.558;9.234;2022-10-03T08:17:19;98572.16;;;15.15;100.00
21980;BME280;11154;48.558;9.234;2022-10-03T08:19:47;98573.97;;;15.14;100.00
21980;BME280;11154;48.558;9.234;2022-10-03T08:22:01;98584.69;;;15.14;100.00
21980;BME280;11154;48.558;9.234;2022-10-03T08:24:23;98580.84;;;15.17;100.00
21980;BME280;11154;48.558;9.234;2022-10-03T08:26:40;98583.38;;;15.18;100.00
21980;BME280;11154;48.558;9.234;2022-10-03T08:29:13;98590.13;;;15.22;100.00
21980;BME280;11154;48.558;9.234;2022-10-03T08:33:59;98591.06;;;15.21;100.00
21980;BME280;11154;48.558;9.234;2022-10-03T08:36:33;98595.31;;;15.24;100.00
21980;BME280;11154;48.558;9.234;2022-10-03T08:38:51;98591.13;;;15.29;100.00
21980;BME280;11154;48.558;9.234;2022-10-03T08:41:36;98598.69;;;15.34;100.00
21980;BME280;11154;48.558;9.234;2022-10-03T08:46:35;98595.34;;;15.40;100.00
21980;BME280;11154;48.558;9.234;2022-10-03T08:49:09;98589.13;;;15.39;100.00
21980;BME280;11154;48.558;9.234;2022-10-03T08:51:52;98594.50;;;15.39;100.00
21980;BME280;11154;48.558;9.234;2022-10-03T08:54:08;98591.50;;;15.50;100.00
21980;BME280;11154;48.558;9.234;2022-10-03T08:56:15;98593.81;;;15.45;100.00
21980;BME280;11154;48.558;9.234;2022-10-03T08:58:36;98586.81;;;15.44;100.00
21980;BME280;11154;48.558;9.234;2022-10-03T09:01:17;98586.47;;;15.47;100.00
21980;BME280;11154;48.558;9.234;2022-10-03T09:03:52;98588.97;;;15.49;100.00
21980;BME280;11154;48.558;9.234;2022-10-03T09:06:21;98585.47;;;15.48;100.00
21980;BME280;11154;48.558;9.234;2022-10-03T09:08:43;98592.50;;;15.49;100.00
21980;BME280;11154;48.558;9.234;2022-10-03T09:11:10;98587.28;;;15.48;100.00
21980;BME280;11154;48.558;9.234;2022-10-03T09:13:24;98586.81;;;15.44;100.00
21980;BME280;11154;48.558;9.234;2022-10-03T09:18:45;98586.66;;;15.54;100.00
21980;BME280;11154;48.558;9.234;2022-10-03T09:23:54;98597.38;;;15.54;100.00
21980;BME280;11154;48.558;9.234;2022-10-03T09:26:24;98598.22;;;15.54;100.00
21980;BME280;11154;48.558;9.234;2022-10-03T09:28:42;98602.75;;;15.54;100.00
21980;BME280;11154;48.558;9.234;2022-10-03T09:30:53;98596.19;;;15.48;100.00
21980;BME280;11154;48.558;9.234;2022-10-03T09:34:00;98598.00;;;15.48;100.00
21980;BME280;11154;48.558;9.234;2022-10-03T09:39:17;98587.16;;;15.49;100.00
21980;BME280;11154;48.558;9.234;2022-10-03T09:41:41;98588.16;;;15.48;100.00
21980;BME280;11154;48.558;9.234;2022-10-03T09:46:51;98579.75;;;15.51;100.00
21980;BME280;11154;48.558;9.234;2022-10-03T09:49:36;98581.63;;;15.59;100.00
21980;BME280;11154;48.558;9.234;2022-10-03T09:51:51;98573.75;;;15.57;100.00
21980;BME280;11154;48.558;9.234;2022-10-03T09:57:24;98574.25;;;15.69;100.00
21980;BME280;11154;48.558;9.234;2022-10-03T09:59:51;98578.09;;;15.74;100.00
21980;BME280;11154;48.558;9.234;2022-10-03T10:02:09;98581.94;;;15.80;100.00
21980;BME280;11154;48.558;9.234;2022-10-03T10:09:51;98568.53;;;16.03;100.00
21980;BME280;11154;48.558;9.234;2022-10-03T10:14:42;98564.81;;;16.12;100.00
21980;BME280;11154;48.558;9.234;2022-10-03T10:17:05;98569.03;;;16.07;100.00
21980;BME280;11154;48.558;9.234;2022-10-03T10:19:24;98571.03;;;16.13;100.00
21980;BME280;11154;48.558;9.234;2022-10-03T10:21:45;98562.13;;;16.12;100.00
21980;BME280;11154;48.558;9.234;2022-10-03T10:24:01;98565.00;;;16.11;100.00
21980;BME280;11154;48.558;9.234;2022-10-03T10:37:29;98578.41;;;16.35;100.00
21980;BME280;11154;48.558;9.234;2022-10-03T10:40:07;98577.06;;;16.39;100.00
21980;BME280;11154;48.558;9.234;2022-10-03T10:43:05;98575.56;;;16.36;96.31
21980;BME280;11154;48.558;9.234;2022-10-03T10:45:38;98575.81;;;16.57;100.00
21980;BME280;11154;48.558;9.234;2022-10-03T10:51:10;98577.97;;;16.69;98.73
21980;BME280;11154;48.558;9.234;2022-10-03T11:01:27;98565.81;;;16.81;94.14
21980;BME280;11154;48.558;9.234;2022-10-03T11:04:05;98566.97;;;16.87;92.61
21980;BME280;11154;48.558;9.234;2022-10-03T11:14:20;98547.81;;;16.90;89.97
21980;BME280;11154;48.558;9.234;2022-10-03T11:16:59;98548.59;;;16.98;88.39
21980;BME280;11154;48.558;9.234;2022-10-03T11:19:38;98551.63;;;17.03;85.21
21980;BME280;11154;48.558;9.234;2022-10-03T11:30:06;98549.56;;;17.05;80.79
21980;BME280;11154;48.558;9.234;2022-10-03T11:37:42;98543.25;;;17.51;87.77
21980;BME280;11154;48.558;9.234;2022-10-03T11:39:49;98522.22;;;17.54;82.40
21980;BME280;11154;48.558;9.234;2022-10-03T11:42:00;98534.34;;;17.50;79.66
21980;BME280;11154;48.558;9.234;2022-10-03T11:44:11;98538.88;;;17.50;77.81
21980;BME280;11154;48.558;9.234;2022-10-03T11:46:25;98535.31;;;17.57;76.79
21980;BME280;11154;48.558;9.234;2022-10-03T11:48:37;98546.06;;;17.57;76.76
21980;BME280;11154;48.558;9.234;2022-10-03T11:50:44;98546.22;;;17.56;75.79
21980;BME280;11154;48.558;9.234;2022-10-03T11:55:24;98538.31;;;17.40;77.79
21980;BME280;11154;48.558;9.234;2022-10-03T11:57:33;98543.06;;;17.30;74.64
21980;BME280;11154;48.558;9.234;2022-10-03T11:59:52;98535.84;;;17.23;75.41
21980;BME280;11154;48.558;9.234;2022-10-03T12:02:04;98535.03;;;17.22;75.85
21980;BME280;11154;48.558;9.234;2022-10-03T12:04:12;98539.97;;;17.11;74.20
21980;BME280;11154;48.558;9.234;2022-10-03T12:06:34;98539.97;;;17.11;76.60
21980;BME280;11154;48.558;9.234;2022-10-03T12:09:06;98539.66;;;17.06;76.56
21980;BME280;11154;48.558;9.234;2022-10-03T12:11:17;98539.13;;;17.10;79.54
21980;BME280;11154;48.558;9.234;2022-10-03T12:13:30;98541.28;;;17.15;80.67
21980;BME280;11154;48.558;9.234;2022-10-03T12:15:38;98537.78;;;17.14;81.87
21980;BME280;11154;48.558;9.234;2022-10-03T12:17:47;98536.44;;;17.10;80.29
21980;BME280;11154;48.558;9.234;2022-10-03T12:19:56;98537.94;;;17.13;81.04
21980;BME280;11154;48.558;9.234;2022-10-03T12:22:12;98528.75;;;17.07;78.00
21980;BME280;11154;48.558;9.234;2022-10-03T12:24:23;98525.03;;;17.08;78.38
21980;BME280;11154;48.558;9.234;2022-10-03T12:26:37;98522.66;;;17.13;79.79
21980;BME280;11154;48.558;9.234;2022-10-03T12:28:45;98529.88;;;17.13;78.08
21980;BME280;11154;48.558;9.234;2022-10-03T12:30:54;98526.53;;;17.11;78.62
21980;BME280;11154;48.558;9.234;2022-10-03T12:33:14;98518.28;;;17.12;78.56
21980;BME280;11154;48.558;9.234;2022-10-03T12:35:34;98517.47;;;17.12;78.11
21980;BME280;11154;48.558;9.234;2022-10-03T12:37:51;98514.41;;;17.15;79.04
21980;BME280;11154;48.558;9.234;2022-10-03T12:40:01;98514.25;;;17.16;80.74
21980;BME280;11154;48.558;9.234;2022-10-03T12:42:19;98508.88;;;17.16;79.21
21980;BME280;11154;48.558;9.234;2022-10-03T12:44:36;98505.81;;;17.19;76.59
21980;BME280;11154;48.558;9.234;2022-10-03T12:46:49;98504.59;;;17.22;73.56
21980;BME280;11154;48.558;9.234;2022-10-03T12:49:00;98499.91;;;17.24;72.50
21980;BME280;11154;48.558;9.234;2022-10-03T12:51:12;98499.41;;;17.28;73.46
21980;BME280;11154;48.558;9.234;2022-10-03T12:53:24;98500.88;;;17.31;73.60
21980;BME280;11154;48.558;9.234;2022-10-03T12:55:31;98486.06;;;17.35;76.68
21980;BME280;11154;48.558;9.234;2022-10-03T12:57:46;98492.09;;;17.37;75.53
21980;BME280;11154;48.558;9.234;2022-10-03T12:59:53;98488.88;;;17.41;77.69
21980;BME280;11154;48.558;9.234;2022-10-03T13:02:21;98482.84;;;17.39;75.66
21980;BME280;11154;48.558;9.234;2022-10-03T13:04:31;98485.88;;;17.36;75.02
21980;BME280;11154;48.558;9.234;2022-10-03T13:06:53;98483.50;;;17.41;75.17
21980;BME280;11154;48.558;9.234;2022-10-03T13:09:12;98483.50;;;17.41;72.29
21980;BME280;11154;48.558;9.234;2022-10-03T13:11:27;98480.97;;;17.39;71.42
21980;BME280;11154;48.558;9.234;2022-10-03T13:13:32;98473.31;;;17.51;75.92
21980;BME280;11154;48.558;9.234;2022-10-03T13:15:42;98480.56;;;17.50;73.04
21980;BME280;11154;48.558;9.234;2022-10-03T13:17:52;98475.34;;;17.49;73.55
21980;BME280;11154;48.558;9.234;2022-10-03T13:20:00;98474.72;;;17.47;73.46
21980;BME280;11154;48.558;9.234;2022-10-03T13:22:13;98469.81;;;17.50;74.23
21980;BME280;11154;48.558;9.234;2022-10-03T13:24:30;98463.50;;;17.58;75.33
21980;BME280;11154;48.558;9.234;2022-10-03T13:26:42;98466.75;;;17.53;69.70
21980;BME280;11154;48.558;9.234;2022-10-03T13:29:14;98466.53;;;17.55;70.39
21980;BME280;11154;48.558;9.234;2022-10-03T13:31:25;98468.41;;;17.54;68.87
21980;BME280;11154;48.558;9.234;2022-10-03T13:33:32;98470.91;;;17.56;69.09
21980;BME280;11154;48.558;9.234;2022-10-03T13:35:39;98473.88;;;17.61;68.43
21980;BME280;11154;48.558;9.234;2022-10-03T13:40:22;98468.88;;;17.58;68.60
21980;BME280;11154;48.558;9.234;2022-10-03T13:42:35;98466.88;;;17.60;70.82
21980;BME280;11154;48.558;9.234;2022-10-03T13:44:41;98470.38;;;17.60;70.11
21980;BME280;11154;48.558;9.234;2022-10-03T13:46:51;98466.88;;;17.60;70.09
21980;BME280;11154;48.558;9.234;2022-10-03T13:48:57;98468.88;;;17.58;69.67
21980;BME280;11154;48.558;9.234;2022-10-03T13:51:04;98471.66;;;17.64;71.58
21980;BME280;11154;48.558;9.234;2022-10-03T13:53:11;98469.84;;;17.65;69.38
21980;BME280;11154;48.558;9.234;2022-10-03T13:55:22;98466.22;;;17.72;72.25
21980;BME280;11154;48.558;9.234;2022-10-03T13:57:32;98466.03;;;17.74;70.41
21980;BME280;11154;48.558;9.234;2022-10-03T13:59:45;98465.75;;;17.69;69.18
21980;BME280;11154;48.558;9.234;2022-10-03T14:01:58;98465.00;;;17.75;70.99
21980;BME280;11154;48.558;9.234;2022-10-03T14:06:32;98464.19;;;17.74;75.37
21980;BME280;11154;48.558;9.234;2022-10-03T14:11:33;98459.91;;;17.65;74.62
21980;BME280;11154;48.558;9.234;2022-10-03T14:13:49;98456.00;;;17.68;76.19
21980;BME280;11154;48.558;9.234;2022-10-03T14:15:56;98454.50;;;17.65;76.44
21980;BME280;11154;48.558;9.234;2022-10-03T14:18:11;98452.03;;;17.64;75.58
21980;BME280;11154;48.558;9.234;2022-10-03T14:20:22;98447.38;;;17.58;76.97
21980;BME280;11154;48.558;9.234;2022-10-03T14:22:33;98441.31;;;17.56;77.08